METAR Data
IDs: Format: Raw Decoded Include TAF

Data at: 2134 UTC 18 Apr 2021

ENBN 182120Z AUTO 08003KT 9999NDV NCD 06/M00 Q1027